Time;durP1;ratioP1;P1;durP2;ratioP2;P2;SDS_P1;SDS_P2;PMS_P1;PMS_P2;Temp;Humidity;BMP_temperature;BMP_pressure;BME280_temperature;BME280_humidity;BME280_pressure;Samples;Min_cycle;Max_cycle;Signal;HPM_P1;HPM_P2
2022/10/29 00:01:22;;;;;;;12.50;6.90;;;18.40;94.60;;;;;;5030282;28;20459;-67
2022/10/29 00:03:49;;;;;;;13.47;7.00;;;18.50;94.60;;;;;;5029494;28;21021;-67
2022/10/29 00:06:16;;;;;;;15.73;6.60;;;18.50;94.70;;;;;;5029193;28;20950;-67
2022/10/29 00:08:43;;;;;;;16.90;7.93;;;18.50;94.70;;;;;;5029754;28;20466;-67
2022/10/29 00:11:13;;;;;;;13.30;6.33;;;18.50;94.70;;;;;;5029547;28;20448;-67
2022/10/29 00:13:41;;;;;;;10.73;6.63;;;18.50;94.80;;;;;;5029946;28;20479;-67
2022/10/29 00:16:10;;;;;;;10.43;6.50;;;18.50;94.80;;;;;;5029579;28;20487;-67
2022/10/29 00:18:36;;;;;;;18.53;7.70;;;18.40;94.80;;;;;;5030094;28;20502;-67
2022/10/29 00:21:04;;;;;;;11.70;6.50;;;18.40;94.80;;;;;;5031076;28;20954;-69
2022/10/29 00:23:31;;;;;;;8.50;6.10;;;18.40;94.90;;;;;;5030532;28;20472;-69
2022/10/29 00:25:58;;;;;;;11.90;7.53;;;18.40;95.00;;;;;;5029393;28;20439;-68
2022/10/29 00:28:27;;;;;;;15.20;7.50;;;18.40;95.00;;;;;;5029027;28;20451;-67
2022/10/29 00:30:54;;;;;;;12.03;6.93;;;18.40;95.00;;;;;;5029153;28;20452;-67
2022/10/29 00:33:21;;;;;;;13.83;7.70;;;18.40;95.10;;;;;;5029296;28;20479;-67
2022/10/29 00:35:58;;;;;;;16.17;7.30;;;18.40;95.10;;;;;;5028805;28;21017;-67
2022/10/29 00:38:25;;;;;;;14.77;7.40;;;18.40;95.20;;;;;;5029106;28;20436;-67
2022/10/29 00:40:52;;;;;;;12.03;7.10;;;18.40;95.50;;;;;;5029327;28;20459;-67
2022/10/29 00:43:21;;;;;;;10.57;7.27;;;18.40;95.20;;;;;;5029787;28;20474;-67
2022/10/29 00:45:52;;;;;;;13.70;7.90;;;18.40;95.30;;;;;;5029370;28;20447;-67
2022/10/29 00:48:20;;;;;;;12.00;6.07;;;18.40;95.30;;;;;;5029183;28;20436;-67
2022/10/29 00:50:48;;;;;;;12.07;7.37;;;18.40;95.30;;;;;;5029744;28;20955;-67
2022/10/29 00:53:16;;;;;;;15.37;7.80;;;18.30;95.20;;;;;;5029261;28;20479;-67
2022/10/29 00:55:43;;;;;;;13.50;6.63;;;18.40;95.30;;;;;;5027927;28;20511;-67
2022/10/29 00:58:11;;;;;;;7.47;5.80;;;18.30;95.20;;;;;;5027634;28;20823;-67
2022/10/29 01:00:38;;;;;;;10.30;6.30;;;18.30;95.20;;;;;;5028024;28;20447;-68
2022/10/29 01:03:07;;;;;;;17.00;8.33;;;18.30;95.10;;;;;;5028431;28;20467;-67
2022/10/29 01:05:35;;;;;;;11.53;6.63;;;18.30;95.20;;;;;;5028219;28;20451;-67
2022/10/29 01:08:02;;;;;;;16.50;6.83;;;18.30;95.30;;;;;;5028724;28;20451;-67
2022/10/29 01:10:37;;;;;;;17.23;7.20;;;18.30;95.40;;;;;;5028527;28;20460;-67
2022/10/29 01:13:15;;;;;;;11.60;7.17;;;18.20;95.40;;;;;;5029650;28;20485;-67
2022/10/29 01:15:52;;;;;;;15.63;6.50;;;18.30;95.50;;;;;;5030575;28;20467;-67
2022/10/29 01:18:24;;;;;;;12.20;6.90;;;18.20;95.40;;;;;;5029560;28;20466;-67
2022/10/29 01:21:36;;;;;;;22.67;7.77;;;18.30;95.50;;;;;;5029231;28;20432;-67
2022/10/29 01:24:27;;;;;;;15.60;7.23;;;18.20;95.40;;;;;;5028867;28;20435;-69
2022/10/29 01:27:23;;;;;;;11.97;6.90;;;18.20;95.50;;;;;;5028679;28;20438;-67
2022/10/29 01:30:13;;;;;;;15.17;8.20;;;18.20;95.40;;;;;;5028498;28;20432;-67
2022/10/29 01:32:53;;;;;;;14.80;6.13;;;18.20;95.80;;;;;;5028247;28;20483;-68
2022/10/29 01:35:29;;;;;;;20.37;6.70;;;18.10;95.40;;;;;;5029083;28;20439;-68
2022/10/29 01:38:06;;;;;;;9.80;7.00;;;18.10;95.40;;;;;;5028868;28;20423;-68
2022/10/29 01:40:36;;;;;;;13.90;7.20;;;18.10;95.50;;;;;;5028451;28;20859;-67
2022/10/29 01:43:08;;;;;;;12.00;6.70;;;18.10;95.60;;;;;;5027907;28;20467;-69
2022/10/29 01:45:39;;;;;;;17.90;7.00;;;18.00;95.60;;;;;;5028584;28;20432;-69
2022/10/29 01:48:12;;;;;;;12.20;6.37;;;18.00;95.60;;;;;;5029289;28;20436;-67
2022/10/29 01:50:42;;;;;;;12.57;6.60;;;18.00;95.60;;;;;;5028048;28;20428;-67
2022/10/29 01:53:09;;;;;;;12.07;7.30;;;17.90;95.60;;;;;;5028360;28;20479;-68
2022/10/29 01:55:37;;;;;;;16.13;6.40;;;17.90;95.60;;;;;;5028327;28;20466;-68
2022/10/29 01:58:05;;;;;;;16.17;6.80;;;17.90;95.70;;;;;;5028402;28;20470;-67
2022/10/29 02:00:40;;;;;;;14.83;6.50;;;17.90;95.70;;;;;;5028978;28;20455;-67
2022/10/29 02:03:24;;;;;;;15.37;7.03;;;17.90;95.70;;;;;;5027752;28;20471;-67
2022/10/29 02:06:00;;;;;;;13.97;7.80;;;17.90;95.80;;;;;;5028760;28;20435;-67
2022/10/29 02:08:36;;;;;;;13.10;7.67;;;17.90;95.80;;;;;;5027215;28;20447;-67
2022/10/29 02:11:09;;;;;;;11.80;6.90;;;17.90;95.80;;;;;;5027881;28;20447;-67
2022/10/29 02:13:44;;;;;;;15.37;7.90;;;17.90;95.70;;;;;;5028354;28;20479;-67
2022/10/29 02:16:13;;;;;;;10.30;7.40;;;17.80;95.60;;;;;;5027927;28;20474;-67
2022/10/29 02:18:43;;;;;;;9.47;6.57;;;17.80;95.60;;;;;;5027676;28;20515;-67
2022/10/29 02:21:10;;;;;;;9.03;6.13;;;17.80;95.60;;;;;;5028800;28;20456;-67
2022/10/29 02:23:37;;;;;;;14.10;6.83;;;17.70;95.60;;;;;;5028066;28;20841;-67
2022/10/29 02:26:03;;;;;;;9.60;6.33;;;17.70;95.60;;;;;;5028467;28;20450;-67
2022/10/29 02:28:30;;;;;;;12.73;6.13;;;17.70;95.70;;;;;;5028350;28;20462;-67
2022/10/29 02:30:57;;;;;;;12.23;6.53;;;17.60;95.60;;;;;;5029071;28;20818;-67
2022/10/29 02:33:23;;;;;;;17.27;7.40;;;17.60;95.60;;;;;;5029512;28;20479;-67
2022/10/29 02:35:51;;;;;;;14.17;7.20;;;17.60;95.60;;;;;;5027869;28;20470;-67
2022/10/29 02:38:18;;;;;;;10.70;6.10;;;17.50;95.50;;;;;;5028428;28;20451;-67
2022/10/29 02:40:45;;;;;;;12.43;7.07;;;17.50;95.50;;;;;;5027735;28;20452;-69
2022/10/29 02:43:12;;;;;;;13.03;6.37;;;17.50;95.40;;;;;;5028205;28;20475;-67
2022/10/29 02:45:38;;;;;;;11.07;6.40;;;17.50;95.50;;;;;;5028476;28;20455;-69
2022/10/29 02:48:06;;;;;;;19.50;7.80;;;17.50;95.50;;;;;;5027920;28;20450;-68
2022/10/29 02:50:33;;;;;;;13.80;7.30;;;17.50;95.60;;;;;;5028310;28;20458;-67
2022/10/29 02:53:01;;;;;;;13.47;6.67;;;17.50;95.70;;;;;;5027985;28;20467;-67
2022/10/29 02:55:27;;;;;;;13.80;7.10;;;17.50;95.70;;;;;;5027326;28;20926;-69
2022/10/29 02:57:54;;;;;;;18.47;6.87;;;17.50;95.70;;;;;;5028481;28;20483;-67
2022/10/29 03:00:21;;;;;;;9.47;6.03;;;17.40;95.70;;;;;;5029308;28;20450;-67
2022/10/29 03:02:52;;;;;;;12.33;6.47;;;17.40;95.70;;;;;;5014233;28;20467;-67
2022/10/29 03:05:19;;;;;;;13.27;6.80;;;17.40;95.80;;;;;;5028376;28;20428;-68
2022/10/29 03:07:46;;;;;;;11.80;6.90;;;17.40;95.80;;;;;;5028476;28;20448;-68
2022/10/29 03:10:14;;;;;;;15.00;6.97;;;17.40;95.90;;;;;;5028469;28;20450;-68
2022/10/29 03:12:40;;;;;;;12.10;6.33;;;17.40;95.90;;;;;;5027455;28;20467;-67
2022/10/29 03:15:08;;;;;;;7.47;5.80;;;17.30;95.80;;;;;;5028160;28;20465;-67
2022/10/29 03:17:35;;;;;;;8.73;6.23;;;17.30;95.90;;;;;;5027666;28;20506;-67
2022/10/29 03:20:01;;;;;;;12.50;7.10;;;17.30;95.90;;;;;;5028506;28;20451;-67
2022/10/29 03:22:28;;;;;;;9.93;6.23;;;17.30;96.00;;;;;;5028131;28;20459;-67
2022/10/29 03:24:55;;;;;;;12.93;6.37;;;17.30;96.10;;;;;;5028358;28;20452;-68
2022/10/29 03:27:23;;;;;;;9.73;6.33;;;17.30;96.20;;;;;;5028087;28;20450;-68
2022/10/29 03:29:49;;;;;;;10.50;6.80;;;17.30;96.20;;;;;;5030127;28;20459;-67
2022/10/29 03:32:16;;;;;;;13.07;7.17;;;17.20;96.20;;;;;;5031860;28;20463;-67
2022/10/29 03:34:43;;;;;;;11.00;6.60;;;17.20;96.20;;;;;;5031381;28;20518;-67
2022/10/29 03:37:09;;;;;;;12.37;7.07;;;17.20;96.60;;;;;;5031445;28;20487;-67
2022/10/29 03:39:37;;;;;;;10.97;6.50;;;17.20;96.30;;;;;;5031650;28;20479;-67
2022/10/29 03:42:04;;;;;;;10.63;6.80;;;17.20;96.40;;;;;;5031366;28;20471;-67
2022/10/29 03:44:32;;;;;;;9.80;6.40;;;17.20;96.50;;;;;;5030795;28;20452;-67
2022/10/29 03:46:59;;;;;;;13.50;6.60;;;17.20;96.50;;;;;;5031431;28;20447;-67
2022/10/29 03:49:26;;;;;;;12.93;7.10;;;17.20;96.50;;;;;;5031142;28;20450;-67
2022/10/29 03:51:52;;;;;;;10.20;7.07;;;17.20;96.40;;;;;;5035083;28;20456;-67
2022/10/29 03:54:19;;;;;;;14.03;7.60;;;17.20;96.50;;;;;;5031540;28;20443;-67
2022/10/29 03:56:46;;;;;;;9.87;6.63;;;17.20;96.50;;;;;;5032149;28;20487;-67
2022/10/29 03:59:12;;;;;;;13.30;7.13;;;17.20;96.50;;;;;;5031497;28;20452;-67
2022/10/29 04:01:40;;;;;;;14.43;7.97;;;17.20;96.40;;;;;;5031323;28;20451;-67
2022/10/29 04:04:07;;;;;;;8.70;6.67;;;17.20;96.40;;;;;;5031114;28;20482;-67
2022/10/29 04:06:34;;;;;;;11.40;6.87;;;17.10;96.40;;;;;;5030242;28;20455;-67
2022/10/29 04:09:01;;;;;;;10.33;6.23;;;17.20;96.50;;;;;;5031174;28;20454;-68
2022/10/29 04:11:27;;;;;;;11.20;7.50;;;17.10;96.60;;;;;;5031324;28;20456;-67
2022/10/29 04:13:54;;;;;;;12.40;7.70;;;17.10;96.60;;;;;;5031601;28;21006;-67
2022/10/29 04:16:21;;;;;;;11.63;6.90;;;17.10;96.70;;;;;;5030865;28;20451;-68
2022/10/29 04:18:50;;;;;;;15.53;7.20;;;17.10;96.70;;;;;;5030944;28;20447;-67
2022/10/29 04:21:17;;;;;;;8.80;6.60;;;17.10;96.70;;;;;;5031710;28;20443;-67
2022/10/29 04:23:43;;;;;;;14.80;7.10;;;17.10;96.70;;;;;;5031411;28;20476;-68
2022/10/29 04:26:10;;;;;;;9.00;6.43;;;17.10;96.70;;;;;;5030481;28;20958;-67
2022/10/29 04:28:37;;;;;;;9.60;7.00;;;17.10;96.80;;;;;;5030780;28;20530;-67
2022/10/29 04:31:05;;;;;;;13.80;7.10;;;17.10;96.90;;;;;;5030966;28;21034;-67
2022/10/29 04:33:32;;;;;;;11.53;8.03;;;17.10;96.90;;;;;;5030300;28;20551;-67
2022/10/29 04:36:03;;;;;;;13.10;7.13;;;17.10;97.00;;;;;;5029585;28;20459;-67
2022/10/29 04:38:30;;;;;;;12.33;7.27;;;17.10;97.00;;;;;;5030261;28;20475;-68
2022/10/29 04:40:59;;;;;;;8.20;5.87;;;17.00;97.00;;;;;;5011776;28;20459;-68
2022/10/29 04:43:26;;;;;;;11.10;7.27;;;17.10;97.10;;;;;;5031643;28;20475;-67
2022/10/29 04:45:54;;;;;;;12.90;6.87;;;17.10;97.20;;;;;;5030759;28;20444;-67
2022/10/29 04:48:21;;;;;;;14.03;7.63;;;17.10;97.40;;;;;;5030035;28;20455;-68
2022/10/29 04:50:49;;;;;;;22.60;8.00;;;17.10;97.50;;;;;;5029569;28;20444;-67
2022/10/29 04:53:17;;;;;;;9.33;7.00;;;17.10;97.60;;;;;;5029781;28;20476;-67
2022/10/29 04:55:45;;;;;;;15.03;8.90;;;17.10;97.60;;;;;;5030041;28;20463;-68
2022/10/29 04:58:13;;;;;;;14.47;8.70;;;17.10;97.60;;;;;;5029781;28;20487;-68
2022/10/29 05:00:40;;;;;;;18.70;8.00;;;17.10;97.60;;;;;;5029593;28;20459;-67
2022/10/29 05:03:07;;;;;;;19.93;8.37;;;17.20;97.80;;;;;;5030054;28;20463;-67
2022/10/29 05:05:34;;;;;;;12.90;8.80;;;17.20;97.80;;;;;;5028990;28;20448;-67
2022/10/29 05:08:02;;;;;;;16.80;8.40;;;17.20;97.80;;;;;;5029401;28;20443;-67
2022/10/29 05:10:32;;;;;;;16.57;8.20;;;17.20;97.80;;;;;;5029598;28;21040;-67
2022/10/29 05:13:00;;;;;;;18.17;8.57;;;17.20;97.90;;;;;;5029425;28;20479;-67
2022/10/29 05:15:28;;;;;;;14.03;8.60;;;17.20;97.90;;;;;;5029856;28;20451;-67
2022/10/29 05:17:55;;;;;;;16.13;8.83;;;17.20;97.90;;;;;;5029432;28;21047;-67
2022/10/29 05:20:22;;;;;;;12.30;8.07;;;17.20;97.90;;;;;;5029435;28;20455;-67
2022/10/29 05:22:49;;;;;;;16.97;8.53;;;17.20;97.90;;;;;;5029116;28;20472;-68
2022/10/29 05:25:16;;;;;;;14.60;8.07;;;17.20;97.80;;;;;;5029876;28;20478;-68
2022/10/29 05:27:44;;;;;;;18.47;8.73;;;17.20;97.90;;;;;;5029098;28;20435;-67
2022/10/29 05:30:11;;;;;;;18.50;8.40;;;17.20;98.00;;;;;;5029495;28;20449;-67
2022/10/29 05:32:38;;;;;;;17.00;8.87;;;17.20;97.90;;;;;;5028680;28;20487;-67
2022/10/29 05:35:05;;;;;;;17.87;8.50;;;17.20;97.90;;;;;;5028692;28;20436;-67
2022/10/29 05:37:32;;;;;;;11.60;7.57;;;17.20;97.90;;;;;;5029390;28;20491;-68
2022/10/29 05:39:58;;;;;;;14.67;7.93;;;17.20;97.90;;;;;;5029955;28;20448;-68
2022/10/29 05:42:25;;;;;;;12.33;8.30;;;17.20;97.90;;;;;;5030068;28;20472;-69
2022/10/29 05:44:53;;;;;;;17.20;7.70;;;17.20;97.90;;;;;;5028602;28;20451;-68
2022/10/29 05:47:20;;;;;;;15.77;8.70;;;17.20;97.90;;;;;;5029262;28;20448;-68
2022/10/29 05:49:46;;;;;;;11.97;8.73;;;17.20;97.80;;;;;;5029414;28;20470;-67
2022/10/29 05:52:13;;;;;;;14.20;9.30;;;17.10;97.60;;;;;;5029443;28;20475;-67
2022/10/29 05:54:40;;;;;;;13.87;7.70;;;17.10;97.70;;;;;;5030778;28;20443;-68
2022/10/29 05:57:06;;;;;;;13.33;9.23;;;17.10;97.70;;;;;;5029789;28;20490;-68
2022/10/29 05:59:33;;;;;;;14.87;9.10;;;17.10;97.80;;;;;;5030528;28;20451;-67
2022/10/29 06:02:01;;;;;;;19.33;9.27;;;17.10;97.80;;;;;;5029909;28;20498;-67
2022/10/29 06:04:28;;;;;;;14.80;9.77;;;17.10;97.80;;;;;;5029912;28;20454;-69
2022/10/29 06:06:54;;;;;;;16.07;8.80;;;17.10;97.90;;;;;;5029285;28;20939;-68
2022/10/29 06:09:21;;;;;;;17.10;9.80;;;17.10;97.90;;;;;;5029572;28;20481;-68
2022/10/29 06:11:48;;;;;;;13.60;7.77;;;17.10;98.00;;;;;;5031008;28;20458;-68
2022/10/29 06:14:14;;;;;;;9.60;8.20;;;17.10;98.10;;;;;;5033187;28;20447;-67
2022/10/29 06:16:42;;;;;;;17.33;9.30;;;17.10;98.10;;;;;;5029699;28;20478;-67
2022/10/29 06:19:10;;;;;;;15.00;8.83;;;17.10;98.10;;;;;;5029540;28;20491;-68
2022/10/29 06:21:36;;;;;;;14.23;10.10;;;17.10;98.20;;;;;;5029354;28;20452;-67
2022/10/29 06:24:03;;;;;;;15.00;7.97;;;17.20;98.30;;;;;;5011159;28;20510;-67
2022/10/29 06:26:30;;;;;;;11.60;8.97;;;17.10;98.60;;;;;;5028608;28;20432;-67
2022/10/29 06:28:57;;;;;;;12.60;8.83;;;17.10;98.20;;;;;;5028680;28;20443;-68
2022/10/29 06:31:24;;;;;;;14.73;8.90;;;17.20;98.30;;;;;;5028306;28;20911;-67
2022/10/29 06:33:50;;;;;;;17.33;9.30;;;17.20;98.40;;;;;;5028752;28;20515;-67
2022/10/29 06:36:19;;;;;;;18.60;8.80;;;17.10;98.30;;;;;;5029251;28;20483;-68
2022/10/29 06:38:45;;;;;;;17.63;9.00;;;17.20;98.40;;;;;;5029252;28;20479;-68
2022/10/29 06:41:13;;;;;;;16.50;9.30;;;17.20;98.40;;;;;;5028845;28;20436;-67
2022/10/29 06:43:39;;;;;;;17.27;9.20;;;17.20;98.40;;;;;;5028506;28;20470;-67
2022/10/29 06:46:06;;;;;;;23.17;8.43;;;17.20;98.40;;;;;;5027972;28;20494;-67
2022/10/29 06:48:33;;;;;;;14.33;8.57;;;17.20;98.30;;;;;;5028877;28;20431;-67
2022/10/29 06:51:00;;;;;;;16.07;8.93;;;17.30;98.30;;;;;;5027567;28;20452;-68
2022/10/29 06:53:28;;;;;;;15.40;8.57;;;17.20;98.20;;;;;;5032198;28;20475;-68
2022/10/29 06:55:55;;;;;;;19.50;9.10;;;17.30;98.50;;;;;;5034131;28;20451;-68
2022/10/29 06:58:22;;;;;;;14.10;8.50;;;17.30;98.10;;;;;;5034483;28;20483;-68
2022/10/29 07:00:48;;;;;;;19.60;9.27;;;17.30;98.00;;;;;;5034685;28;20431;-67
2022/10/29 07:03:17;;;;;;;21.43;8.03;;;17.30;98.00;;;;;;5034080;28;20467;-67
2022/10/29 07:05:44;;;;;;;12.80;7.73;;;17.30;97.90;;;;;;5038004;28;20440;-68
2022/10/29 07:08:11;;;;;;;19.47;8.33;;;17.30;97.90;;;;;;5038511;28;20442;-68
2022/10/29 07:10:39;;;;;;;17.87;8.90;;;17.30;97.90;;;;;;5038040;28;20459;-68
2022/10/29 07:13:06;;;;;;;16.03;8.70;;;17.40;97.90;;;;;;5037966;28;20474;-67
2022/10/29 07:15:33;;;;;;;18.70;9.53;;;17.40;97.90;;;;;;5037673;28;20461;-67
2022/10/29 07:18:01;;;;;;;17.57;8.67;;;17.40;97.90;;;;;;5038490;28;20467;-67
2022/10/29 07:20:30;;;;;;;12.43;8.53;;;17.40;97.90;;;;;;5038607;28;20428;-68
2022/10/29 07:22:58;;;;;;;13.90;8.23;;;17.50;97.90;;;;;;5031368;28;20475;-68
2022/10/29 07:25:25;;;;;;;17.13;8.10;;;17.50;97.80;;;;;;5033915;28;20453;-68
2022/10/29 07:27:53;;;;;;;17.70;8.20;;;17.50;97.80;;;;;;5029057;28;20443;-68
2022/10/29 07:30:20;;;;;;;16.07;8.60;;;17.60;97.80;;;;;;5027739;28;20451;-68
2022/10/29 07:32:46;;;;;;;13.87;7.40;;;17.60;97.70;;;;;;5028334;28;20474;-67
2022/10/29 07:35:13;;;;;;;16.50;7.40;;;17.60;97.70;;;;;;5027103;28;20455;-67
2022/10/29 07:37:40;;;;;;;13.13;7.97;;;17.60;97.60;;;;;;5025349;28;20479;-69
2022/10/29 07:40:08;;;;;;;14.47;8.70;;;17.70;97.50;;;;;;5025034;28;20459;-68
2022/10/29 07:42:35;;;;;;;12.00;8.70;;;17.70;97.40;;;;;;5024269;28;20482;-68
2022/10/29 07:45:03;;;;;;;18.07;9.60;;;17.80;97.30;;;;;;5022942;28;20435;-67
2022/10/29 07:47:30;;;;;;;15.53;7.43;;;17.80;97.30;;;;;;5023920;28;20452;-68
2022/10/29 07:49:57;;;;;;;9.53;6.87;;;17.80;97.30;;;;;;5024854;28;20455;-69
2022/10/29 07:52:24;;;;;;;11.47;8.03;;;17.90;97.20;;;;;;5025940;28;20475;-68
2022/10/29 07:54:50;;;;;;;14.87;7.87;;;17.90;97.10;;;;;;5025483;28;20447;-67
2022/10/29 07:57:17;;;;;;;14.60;7.20;;;18.00;97.00;;;;;;5024514;28;20431;-68
2022/10/29 07:59:45;;;;;;;18.70;7.13;;;18.10;97.00;;;;;;5026148;28;21002;-69
2022/10/29 08:02:13;;;;;;;13.77;7.43;;;18.20;96.80;;;;;;5026351;28;20810;-67
2022/10/29 08:04:40;;;;;;;21.73;7.80;;;18.20;96.10;;;;;;5026834;28;20462;-68
2022/10/29 08:07:07;;;;;;;17.80;7.67;;;18.30;96.10;;;;;;5025310;28;20450;-67
2022/10/29 08:09:33;;;;;;;21.20;6.80;;;18.40;96.10;;;;;;5023600;28;20447;-67
2022/10/29 08:12:00;;;;;;;15.20;8.30;;;18.40;96.00;;;;;;5023796;28;20838;-67
2022/10/29 08:14:27;;;;;;;19.73;8.53;;;18.50;96.00;;;;;;5016943;28;20455;-67
2022/10/29 08:16:54;;;;;;;13.07;7.23;;;18.60;96.10;;;;;;5015792;28;20463;-68
2022/10/29 08:19:22;;;;;;;20.52;9.57;;;18.60;96.00;;;;;;5020070;28;20524;-67
2022/10/29 08:21:49;;;;;;;19.27;8.20;;;18.80;96.20;;;;;;5017156;28;20296;-70
2022/10/29 08:24:17;;;;;;;27.97;9.87;;;18.80;96.10;;;;;;5015345;28;20448;-69
2022/10/29 08:26:44;;;;;;;25.50;9.20;;;18.90;96.10;;;;;;5015773;28;20447;-68
2022/10/29 08:29:11;;;;;;;20.17;9.77;;;19.00;96.10;;;;;;5014620;28;20448;-66
2022/10/29 08:31:39;;;;;;;20.47;9.47;;;19.10;95.90;;;;;;5016578;28;20492;-68
2022/10/29 08:34:06;;;;;;;25.57;10.17;;;19.20;95.70;;;;;;5016845;28;20462;-69
2022/10/29 08:36:34;;;;;;;22.73;8.60;;;19.30;95.60;;;;;;5018449;28;20463;-68
2022/10/29 08:39:02;;;;;;;18.97;7.70;;;19.50;95.80;;;;;;5026497;28;20467;-69
2022/10/29 08:41:40;;;;;;;99.47;15.37;;;19.60;95.30;;;;;;5021906;28;20452;-66
2022/10/29 08:44:24;;;;;;;13.93;8.23;;;19.70;95.90;;;;;;5019777;28;20435;-69
2022/10/29 08:46:56;;;;;;;20.30;9.57;;;19.80;94.40;;;;;;5020314;28;20498;-69
2022/10/29 08:49:30;;;;;;;102.70;12.77;;;20.00;94.30;;;;;;5018098;28;20451;-69
2022/10/29 08:52:01;;;;;;;129.03;17.90;;;20.10;94.20;;;;;;5021568;28;20530;-69
2022/10/29 08:54:33;;;;;;;64.47;12.90;;;20.30;94.20;;;;;;5016502;28;20911;-69
2022/10/29 08:57:07;;;;;;;57.47;10.93;;;20.40;94.10;;;;;;5016811;28;20447;-69
2022/10/29 08:59:40;;;;;;;50.50;10.77;;;20.60;94.00;;;;;;5017402;28;20479;-69
2022/10/29 09:02:14;;;;;;;38.17;9.00;;;20.70;93.70;;;;;;5016769;28;20464;-69
2022/10/29 09:04:41;;;;;;;26.10;8.60;;;20.90;93.40;;;;;;5023621;28;20465;-69
2022/10/29 09:07:24;;;;;;;23.03;7.90;;;21.00;93.00;;;;;;5035249;28;20457;-69
2022/10/29 09:09:59;;;;;;;18.37;8.20;;;21.10;92.70;;;;;;5017216;28;20436;-69
2022/10/29 09:12:46;;;;;;;22.77;8.07;;;21.20;92.50;;;;;;5016942;28;20966;-69
2022/10/29 09:15:36;;;;;;;23.63;8.60;;;21.30;92.20;;;;;;5018788;28;20435;-69
2022/10/29 09:18:18;;;;;;;19.60;8.90;;;21.40;92.00;;;;;;5017734;28;20443;-69
2022/10/29 09:20:54;;;;;;;15.23;7.90;;;21.50;91.90;;;;;;5019391;28;20432;-69
2022/10/29 09:23:30;;;;;;;23.97;8.17;;;21.60;91.70;;;;;;5020968;28;20479;-69
2022/10/29 09:26:02;;;;;;;18.93;8.17;;;21.70;91.60;;;;;;5022397;28;20424;-69
2022/10/29 09:28:39;;;;;;;22.60;7.10;;;21.80;91.40;;;;;;5021009;28;20474;-71
2022/10/29 09:31:13;;;;;;;12.70;5.90;;;21.80;91.20;;;;;;5023066;28;20440;-71
2022/10/29 09:33:41;;;;;;;15.73;6.90;;;21.80;91.10;;;;;;5021951;28;20479;-71
2022/10/29 09:36:14;;;;;;;15.63;6.97;;;21.90;91.00;;;;;;5022088;28;20455;-71
2022/10/29 09:38:47;;;;;;;16.43;8.67;;;21.90;90.90;;;;;;5021010;28;20470;-71
2022/10/29 09:41:13;;;;;;;12.63;6.70;;;22.00;90.80;;;;;;5019065;28;20444;-70
2022/10/29 09:43:48;;;;;;;15.93;7.90;;;22.20;91.10;;;;;;5021520;28;20479;-71
2022/10/29 09:46:21;;;;;;;14.40;7.30;;;22.30;90.10;;;;;;5022116;28;20436;-71
2022/10/29 09:48:57;;;;;;;17.13;6.93;;;22.40;89.40;;;;;;5020742;28;20440;-70
2022/10/29 09:51:34;;;;;;;11.80;6.10;;;22.50;88.80;;;;;;5020140;28;20446;-70
2022/10/29 09:54:02;;;;;;;11.50;6.57;;;22.60;88.60;;;;;;5020683;28;20436;-71
2022/10/29 09:56:29;;;;;;;18.03;7.47;;;22.60;88.20;;;;;;5023557;28;20456;-71
2022/10/29 09:59:07;;;;;;;12.90;6.40;;;22.70;88.10;;;;;;5020466;28;20479;-70
2022/10/29 10:01:33;;;;;;;14.20;6.83;;;22.70;87.60;;;;;;5021709;28;20434;-71
2022/10/29 10:04:12;;;;;;;14.63;7.50;;;22.60;87.10;;;;;;5019832;28;20462;-71
2022/10/29 10:07:01;;;;;;;13.73;6.40;;;22.60;87.30;;;;;;5019663;28;20435;-70
2022/10/29 10:09:37;;;;;;;12.07;6.27;;;22.60;87.40;;;;;;5021293;28;20448;-70
2022/10/29 10:12:08;;;;;;;18.43;6.73;;;22.50;87.30;;;;;;5020488;28;20475;-70
2022/10/29 10:14:34;;;;;;;11.83;6.43;;;22.50;87.50;;;;;;5014173;28;20443;-69
2022/10/29 10:17:02;;;;;;;14.13;7.40;;;22.60;87.40;;;;;;5014279;28;20451;-68
2022/10/29 10:19:31;;;;;;;14.53;7.63;;;22.60;87.10;;;;;;5014165;28;20491;-69
2022/10/29 10:22:01;;;;;;;13.93;8.67;;;22.70;87.00;;;;;;5013917;28;20811;-69
2022/10/29 10:24:32;;;;;;;17.43;10.10;;;22.80;86.50;;;;;;5013605;28;20456;-69
2022/10/29 10:26:59;;;;;;;20.03;11.50;;;22.90;86.10;;;;;;5013914;28;20435;-69
2022/10/29 10:29:26;;;;;;;14.53;9.10;;;23.00;85.80;;;;;;5014103;28;20459;-73
2022/10/29 10:32:14;;;;;;;17.37;8.20;;;23.00;85.30;;;;;;5014636;28;20479;-71
2022/10/29 10:34:41;;;;;;;13.93;7.87;;;22.90;84.90;;;;;;5014251;28;20436;-73
2022/10/29 10:37:18;;;;;;;11.13;7.23;;;22.90;84.60;;;;;;5014611;28;20462;-73
2022/10/29 10:39:51;;;;;;;18.67;7.10;;;22.80;84.20;;;;;;5015981;28;20475;-70
2022/10/29 10:42:21;;;;;;;16.70;7.60;;;22.80;84.10;;;;;;5018524;28;20475;-69
2022/10/29 10:44:54;;;;;;;14.87;6.77;;;22.70;83.90;;;;;;5017914;28;20436;-70
2022/10/29 10:47:25;;;;;;;14.20;6.73;;;22.80;84.30;;;;;;5017597;28;20443;-70
2022/10/29 10:49:51;;;;;;;20.33;8.00;;;22.80;84.40;;;;;;5017949;28;20428;-70
2022/10/29 10:52:22;;;;;;;12.27;6.57;;;22.90;84.60;;;;;;5017840;28;20471;-70
2022/10/29 10:54:58;;;;;;;11.70;6.50;;;23.00;84.20;;;;;;5017708;28;20443;-70
2022/10/29 10:57:27;;;;;;;17.20;7.40;;;23.30;83.80;;;;;;5017766;28;20845;-70
2022/10/29 11:00:05;;;;;;;23.67;7.83;;;23.70;82.50;;;;;;5017650;28;20498;-70
2022/10/29 11:02:43;;;;;;;14.27;6.03;;;24.10;80.20;;;;;;5018390;28;21009;-70
2022/10/29 11:05:17;;;;;;;14.63;5.87;;;24.40;78.00;;;;;;5018031;28;20432;-70
2022/10/29 11:07:49;;;;;;;11.20;5.70;;;24.60;77.10;;;;;;5017713;28;20966;-70
2022/10/29 11:10:20;;;;;;;10.67;5.67;;;24.90;75.90;;;;;;5019525;28;20436;-73
2022/10/29 11:12:53;;;;;;;16.10;7.10;;;25.10;74.70;;;;;;5024382;28;20478;-70
2022/10/29 11:15:29;;;;;;;17.60;6.50;;;25.40;73.30;;;;;;5018651;28;20455;-70
2022/10/29 11:18:02;;;;;;;19.90;6.90;;;25.70;71.70;;;;;;5017916;28;20446;-70
2022/10/29 11:20:34;;;;;;;13.73;6.40;;;26.20;69.50;;;;;;5017770;28;20479;-69
2022/10/29 11:23:15;;;;;;;19.07;6.07;;;26.70;66.90;;;;;;5016906;28;20994;-69
2022/10/29 11:25:48;;;;;;;14.73;5.73;;;27.10;62.40;;;;;;5016173;28;20427;-69
2022/10/29 11:28:23;;;;;;;11.27;5.87;;;27.60;61.10;;;;;;5014002;28;20459;-70
2022/10/29 11:30:57;;;;;;;10.30;6.73;;;28.10;58.90;;;;;;5015228;28;20455;-70
2022/10/29 11:33:33;;;;;;;13.70;7.23;;;28.40;57.20;;;;;;5015571;28;20862;-69
2022/10/29 11:36:05;;;;;;;12.67;7.07;;;28.50;54.40;;;;;;5031322;28;20447;-70
2022/10/29 11:38:37;;;;;;;11.57;6.13;;;28.40;55.40;;;;;;5017587;28;20438;-70
2022/10/29 11:41:13;;;;;;;16.93;6.00;;;28.50;55.80;;;;;;5017048;28;20439;-70
2022/10/29 11:43:40;;;;;;;14.47;6.33;;;28.90;55.60;;;;;;5017103;28;20483;-71
2022/10/29 11:46:13;;;;;;;15.33;7.27;;;29.20;54.80;;;;;;5016897;28;20458;-70
2022/10/29 11:48:52;;;;;;;14.20;5.60;;;29.70;54.10;;;;;;5017311;28;20444;-71
2022/10/29 11:51:33;;;;;;;16.73;6.20;;;30.00;52.60;;;;;;5016773;28;20438;-70
2022/10/29 11:54:04;;;;;;;12.40;6.07;;;30.30;51.50;;;;;;5016697;28;20471;-71
2022/10/29 11:56:49;;;;;;;14.17;6.57;;;30.40;51.20;;;;;;5016637;28;20435;-71
2022/10/29 11:59:25;;;;;;;15.57;6.17;;;30.20;50.70;;;;;;5016919;28;20841;-70
2022/10/29 12:02:02;;;;;;;15.50;5.83;;;30.10;50.90;;;;;;5016799;28;21013;-71
2022/10/29 12:04:32;;;;;;;15.13;6.40;;;30.00;51.30;;;;;;5018427;28;20813;-71
2022/10/29 12:07:12;;;;;;;16.30;6.50;;;30.00;51.50;;;;;;5016327;28;20946;-71
2022/10/29 12:10:17;;;;;;;11.77;7.20;;;30.30;51.40;;;;;;5016518;28;20439;-71
2022/10/29 12:12:51;;;;;;;16.23;9.20;;;30.60;50.30;;;;;;5014022;28;20506;-71
2022/10/29 12:15:24;;;;;;;18.73;10.53;;;30.70;49.90;;;;;;5016485;28;20434;-71
2022/10/29 12:18:01;;;;;;;19.00;11.40;;;30.80;49.60;;;;;;5016571;28;20442;-71
2022/10/29 12:20:35;;;;;;;17.33;8.63;;;30.70;49.30;;;;;;5015872;28;21004;-70
2022/10/29 12:23:09;;;;;;;15.53;7.73;;;30.50;49.80;;;;;;5016134;28;20475;-71
2022/10/29 12:25:46;;;;;;;13.80;7.13;;;30.30;50.30;;;;;;5016374;28;20439;-71
2022/10/29 12:28:19;;;;;;;16.03;7.53;;;30.30;50.90;;;;;;5016204;28;20439;-71
2022/10/29 12:31:00;;;;;;;18.27;6.10;;;30.60;50.70;;;;;;5016056;28;20423;-71
2022/10/29 12:33:32;;;;;;;15.63;7.43;;;31.10;49.60;;;;;;5018417;28;20489;-72
2022/10/29 12:36:05;;;;;;;13.23;6.50;;;31.70;48.10;;;;;;5018364;28;20446;-71
2022/10/29 12:38:38;;;;;;;20.53;7.63;;;32.30;46.40;;;;;;5016556;28;20442;-71
2022/10/29 12:41:09;;;;;;;13.50;7.20;;;32.80;45.20;;;;;;5016693;28;20471;-70
2022/10/29 12:43:40;;;;;;;12.60;6.67;;;33.10;44.30;;;;;;5015806;28;20466;-70
2022/10/29 12:46:19;;;;;;;16.73;7.27;;;33.30;43.10;;;;;;5015832;28;20435;-71
2022/10/29 12:48:55;;;;;;;14.87;6.77;;;33.50;42.80;;;;;;5016213;28;20467;-71
2022/10/29 12:51:29;;;;;;;15.67;6.57;;;33.60;42.40;;;;;;5016469;28;20431;-71
2022/10/29 12:54:25;;;;;;;13.20;6.30;;;33.50;42.70;;;;;;5015960;28;20479;-72